sensor_id;sensor_type;location;lat;lon;timestamp;temperature;humidity
59977;DHT22;45837;51.076;3.578;2023-02-15T00:00:54;20.10;54.20
59977;DHT22;45837;51.076;3.578;2023-02-15T00:03:29;20.20;54.30
59977;DHT22;45837;51.076;3.578;2023-02-15T00:05:56;20.10;54.20
59977;DHT22;45837;51.076;3.578;2023-02-15T00:08:22;20.10;54.20
59977;DHT22;45837;51.076;3.578;2023-02-15T00:10:48;20.10;54.20
59977;DHT22;45837;51.076;3.578;2023-02-15T00:13:13;20.10;54.20
59977;DHT22;45837;51.076;3.578;2023-02-15T00:15:39;20.10;54.20
59977;DHT22;45837;51.076;3.578;2023-02-15T00:18:05;20.00;54.30
59977;DHT22;45837;51.076;3.578;2023-02-15T00:20:30;20.00;54.20
59977;DHT22;45837;51.076;3.578;2023-02-15T00:22:56;20.00;54.20
59977;DHT22;45837;51.076;3.578;2023-02-15T00:25:22;20.00;54.20
59977;DHT22;45837;51.076;3.578;2023-02-15T00:27:47;20.00;54.10
59977;DHT22;45837;51.076;3.578;2023-02-15T00:30:13;20.00;54.10
59977;DHT22;45837;51.076;3.578;2023-02-15T00:32:39;20.00;54.00
59977;DHT22;45837;51.076;3.578;2023-02-15T00:35:04;20.00;54.00
59977;DHT22;45837;51.076;3.578;2023-02-15T00:37:32;20.00;54.00
59977;DHT22;45837;51.076;3.578;2023-02-15T00:39:58;19.90;53.90
59977;DHT22;45837;51.076;3.578;2023-02-15T00:42:24;19.90;54.00
59977;DHT22;45837;51.076;3.578;2023-02-15T00:44:51;19.90;54.00
59977;DHT22;45837;51.076;3.578;2023-02-15T00:47:16;19.90;53.90
59977;DHT22;45837;51.076;3.578;2023-02-15T00:49:42;19.90;53.90
59977;DHT22;45837;51.076;3.578;2023-02-15T00:52:08;19.90;53.90
59977;DHT22;45837;51.076;3.578;2023-02-15T00:54:34;19.80;53.80
59977;DHT22;45837;51.076;3.578;2023-02-15T00:57:00;19.80;53.80
59977;DHT22;45837;51.076;3.578;2023-02-15T00:59:27;19.80;53.80
59977;DHT22;45837;51.076;3.578;2023-02-15T01:01:52;19.80;53.70
59977;DHT22;45837;51.076;3.578;2023-02-15T01:04:18;19.80;53.70
59977;DHT22;45837;51.076;3.578;2023-02-15T01:06:44;19.80;53.70
59977;DHT22;45837;51.076;3.578;2023-02-15T01:09:10;19.80;53.70
59977;DHT22;45837;51.076;3.578;2023-02-15T01:11:36;19.80;53.70
59977;DHT22;45837;51.076;3.578;2023-02-15T01:14:01;19.80;53.60
59977;DHT22;45837;51.076;3.578;2023-02-15T01:16:28;19.70;53.60
59977;DHT22;45837;51.076;3.578;2023-02-15T01:18:54;19.70;53.60
59977;DHT22;45837;51.076;3.578;2023-02-15T01:21:21;19.70;53.60
59977;DHT22;45837;51.076;3.578;2023-02-15T01:23:47;19.70;53.60
59977;DHT22;45837;51.076;3.578;2023-02-15T01:26:13;19.70;53.60
59977;DHT22;45837;51.076;3.578;2023-02-15T01:28:39;19.70;53.60
59977;DHT22;45837;51.076;3.578;2023-02-15T01:31:08;19.60;53.60
59977;DHT22;45837;51.076;3.578;2023-02-15T01:33:36;19.60;53.50
59977;DHT22;45837;51.076;3.578;2023-02-15T01:36:02;19.60;53.50
59977;DHT22;45837;51.076;3.578;2023-02-15T01:38:28;19.60;53.50
59977;DHT22;45837;51.076;3.578;2023-02-15T01:40:54;19.60;53.50
59977;DHT22;45837;51.076;3.578;2023-02-15T01:43:41;19.60;53.40
59977;DHT22;45837;51.076;3.578;2023-02-15T01:46:07;19.50;53.30
59977;DHT22;45837;51.076;3.578;2023-02-15T01:48:33;19.50;53.30
59977;DHT22;45837;51.076;3.578;2023-02-15T01:51:00;19.50;53.20
59977;DHT22;45837;51.076;3.578;2023-02-15T01:53:27;19.50;53.20
59977;DHT22;45837;51.076;3.578;2023-02-15T01:58:24;19.50;53.20
59977;DHT22;45837;51.076;3.578;2023-02-15T02:00:50;19.50;53.20
59977;DHT22;45837;51.076;3.578;2023-02-15T02:03:16;19.50;53.20
59977;DHT22;45837;51.076;3.578;2023-02-15T02:05:42;19.40;53.20
59977;DHT22;45837;51.076;3.578;2023-02-15T02:08:11;19.40;53.20
59977;DHT22;45837;51.076;3.578;2023-02-15T02:10:37;19.40;53.10
59977;DHT22;45837;51.076;3.578;2023-02-15T02:13:03;19.40;53.20
59977;DHT22;45837;51.076;3.578;2023-02-15T02:18:35;19.40;53.00
59977;DHT22;45837;51.076;3.578;2023-02-15T02:23:24;19.40;53.00
59977;DHT22;45837;51.076;3.578;2023-02-15T02:26:11;19.40;53.00
59977;DHT22;45837;51.076;3.578;2023-02-15T02:33:51;19.30;53.00
59977;DHT22;45837;51.076;3.578;2023-02-15T02:36:35;19.30;53.00
59977;DHT22;45837;51.076;3.578;2023-02-15T02:39:20;19.30;53.00
59977;DHT22;45837;51.076;3.578;2023-02-15T02:41:54;19.20;52.90
59977;DHT22;45837;51.076;3.578;2023-02-15T02:44:34;19.20;52.90
59977;DHT22;45837;51.076;3.578;2023-02-15T02:49:36;19.20;52.90
59977;DHT22;45837;51.076;3.578;2023-02-15T02:52:04;19.20;52.80
59977;DHT22;45837;51.076;3.578;2023-02-15T02:54:32;19.20;52.80
59977;DHT22;45837;51.076;3.578;2023-02-15T02:56:59;19.20;52.80
59977;DHT22;45837;51.076;3.578;2023-02-15T02:59:37;19.10;52.80
59977;DHT22;45837;51.076;3.578;2023-02-15T03:02:09;19.20;52.90
59977;DHT22;45837;51.076;3.578;2023-02-15T03:04:39;19.10;52.80
59977;DHT22;45837;51.076;3.578;2023-02-15T03:07:07;19.10;52.80
59977;DHT22;45837;51.076;3.578;2023-02-15T03:09:36;19.10;52.70
59977;DHT22;45837;51.076;3.578;2023-02-15T03:12:13;19.10;52.60
59977;DHT22;45837;51.076;3.578;2023-02-15T03:14:44;19.10;52.60
59977;DHT22;45837;51.076;3.578;2023-02-15T03:17:10;19.10;52.60
59977;DHT22;45837;51.076;3.578;2023-02-15T03:19:37;19.10;52.50
59977;DHT22;45837;51.076;3.578;2023-02-15T03:24:53;19.10;52.60
59977;DHT22;45837;51.076;3.578;2023-02-15T03:27:22;19.10;52.60
59977;DHT22;45837;51.076;3.578;2023-02-15T03:29:52;19.00;52.50
59977;DHT22;45837;51.076;3.578;2023-02-15T03:32:18;19.00;52.50
59977;DHT22;45837;51.076;3.578;2023-02-15T03:34:44;19.00;52.50
59977;DHT22;45837;51.076;3.578;2023-02-15T03:37:16;19.00;52.50
59977;DHT22;45837;51.076;3.578;2023-02-15T03:39:49;19.00;52.50
59977;DHT22;45837;51.076;3.578;2023-02-15T03:47:18;19.00;52.50
59977;DHT22;45837;51.076;3.578;2023-02-15T03:50:07;18.90;52.40
59977;DHT22;45837;51.076;3.578;2023-02-15T03:52:54;18.90;52.50
59977;DHT22;45837;51.076;3.578;2023-02-15T03:55:21;18.90;52.50
59977;DHT22;45837;51.076;3.578;2023-02-15T03:57:47;18.90;52.60
59977;DHT22;45837;51.076;3.578;2023-02-15T04:00:31;18.90;52.50
59977;DHT22;45837;51.076;3.578;2023-02-15T04:03:21;18.90;52.50
59977;DHT22;45837;51.076;3.578;2023-02-15T04:05:48;18.80;52.40
59977;DHT22;45837;51.076;3.578;2023-02-15T04:08:14;18.90;52.50
59977;DHT22;45837;51.076;3.578;2023-02-15T04:10:40;18.90;52.50
59977;DHT22;45837;51.076;3.578;2023-02-15T04:13:19;18.80;52.40
59977;DHT22;45837;51.076;3.578;2023-02-15T04:15:45;18.80;52.40
59977;DHT22;45837;51.076;3.578;2023-02-15T04:18:33;18.80;52.40
59977;DHT22;45837;51.076;3.578;2023-02-15T04:21:18;18.80;52.40
59977;DHT22;45837;51.076;3.578;2023-02-15T04:24:03;18.80;52.40
59977;DHT22;45837;51.076;3.578;2023-02-15T04:26:47;18.80;52.30
59977;DHT22;45837;51.076;3.578;2023-02-15T04:29:16;18.80;52.30
59977;DHT22;45837;51.076;3.578;2023-02-15T04:31:42;18.70;52.10
59977;DHT22;45837;51.076;3.578;2023-02-15T04:34:08;18.70;52.10
59977;DHT22;45837;51.076;3.578;2023-02-15T04:36:35;18.70;52.20
59977;DHT22;45837;51.076;3.578;2023-02-15T04:39:01;18.70;52.10
59977;DHT22;45837;51.076;3.578;2023-02-15T04:41:27;18.70;52.10
59977;DHT22;45837;51.076;3.578;2023-02-15T04:43:53;18.70;52.20
59977;DHT22;45837;51.076;3.578;2023-02-15T04:46:19;18.70;52.10
59977;DHT22;45837;51.076;3.578;2023-02-15T04:48:45;18.70;52.20
59977;DHT22;45837;51.076;3.578;2023-02-15T04:51:11;18.70;52.10
59977;DHT22;45837;51.076;3.578;2023-02-15T04:53:37;18.70;52.10
59977;DHT22;45837;51.076;3.578;2023-02-15T04:56:03;18.20;51.80
59977;DHT22;45837;51.076;3.578;2023-02-15T04:58:29;18.60;52.20
59977;DHT22;45837;51.076;3.578;2023-02-15T05:00:55;18.60;52.10
59977;DHT22;45837;51.076;3.578;2023-02-15T05:03:21;18.60;52.00
59977;DHT22;45837;51.076;3.578;2023-02-15T05:05:47;18.60;52.00
59977;DHT22;45837;51.076;3.578;2023-02-15T05:08:13;18.60;52.10
59977;DHT22;45837;51.076;3.578;2023-02-15T05:10:39;18.60;52.20
59977;DHT22;45837;51.076;3.578;2023-02-15T05:13:05;18.60;52.20
59977;DHT22;45837;51.076;3.578;2023-02-15T05:15:30;18.60;52.20
59977;DHT22;45837;51.076;3.578;2023-02-15T05:17:56;18.60;52.30
59977;DHT22;45837;51.076;3.578;2023-02-15T05:20:22;18.50;52.20
59977;DHT22;45837;51.076;3.578;2023-02-15T05:22:48;18.50;52.30
59977;DHT22;45837;51.076;3.578;2023-02-15T05:25:14;18.50;52.20
59977;DHT22;45837;51.076;3.578;2023-02-15T05:27:58;18.50;52.20
59977;DHT22;45837;51.076;3.578;2023-02-15T05:30:43;18.60;52.20
59977;DHT22;45837;51.076;3.578;2023-02-15T05:33:08;18.50;52.20
59977;DHT22;45837;51.076;3.578;2023-02-15T05:35:34;18.50;52.10
59977;DHT22;45837;51.076;3.578;2023-02-15T05:38:00;18.50;52.10
59977;DHT22;45837;51.076;3.578;2023-02-15T05:40:26;18.50;52.10
59977;DHT22;45837;51.076;3.578;2023-02-15T05:42:52;18.50;52.10
59977;DHT22;45837;51.076;3.578;2023-02-15T05:45:18;18.50;52.10
59977;DHT22;45837;51.076;3.578;2023-02-15T05:47:44;18.50;52.00
59977;DHT22;45837;51.076;3.578;2023-02-15T05:50:10;18.50;52.00
59977;DHT22;45837;51.076;3.578;2023-02-15T05:52:36;18.50;52.10
59977;DHT22;45837;51.076;3.578;2023-02-15T05:55:03;18.50;52.00
59977;DHT22;45837;51.076;3.578;2023-02-15T05:57:29;18.40;52.00
59977;DHT22;45837;51.076;3.578;2023-02-15T05:59:55;18.40;51.90
59977;DHT22;45837;51.076;3.578;2023-02-15T06:02:21;18.40;51.80
59977;DHT22;45837;51.076;3.578;2023-02-15T06:04:47;18.40;51.80
59977;DHT22;45837;51.076;3.578;2023-02-15T06:07:15;18.40;51.70
59977;DHT22;45837;51.076;3.578;2023-02-15T06:09:41;18.40;51.70
59977;DHT22;45837;51.076;3.578;2023-02-15T06:12:07;18.40;51.90
59977;DHT22;45837;51.076;3.578;2023-02-15T06:14:33;18.40;52.10
59977;DHT22;45837;51.076;3.578;2023-02-15T06:16:59;18.40;52.30
59977;DHT22;45837;51.076;3.578;2023-02-15T06:19:24;18.40;52.80
59977;DHT22;45837;51.076;3.578;2023-02-15T06:21:50;18.40;53.20
59977;DHT22;45837;51.076;3.578;2023-02-15T06:24:16;18.40;53.30
59977;DHT22;45837;51.076;3.578;2023-02-15T06:26:42;18.30;53.50
59977;DHT22;45837;51.076;3.578;2023-02-15T06:29:08;18.40;53.70
59977;DHT22;45837;51.076;3.578;2023-02-15T06:31:34;18.40;54.00
59977;DHT22;45837;51.076;3.578;2023-02-15T06:34:00;18.40;53.80
59977;DHT22;45837;51.076;3.578;2023-02-15T06:36:27;18.40;54.20
59977;DHT22;45837;51.076;3.578;2023-02-15T06:38:54;18.40;54.60
59977;DHT22;45837;51.076;3.578;2023-02-15T06:41:20;18.40;54.30
59977;DHT22;45837;51.076;3.578;2023-02-15T06:43:46;18.50;54.10
59977;DHT22;45837;51.076;3.578;2023-02-15T06:46:12;18.40;53.70
59977;DHT22;45837;51.076;3.578;2023-02-15T06:48:38;18.30;53.30
59977;DHT22;45837;51.076;3.578;2023-02-15T06:51:03;18.40;52.90
59977;DHT22;45837;51.076;3.578;2023-02-15T06:53:29;18.40;52.40
59977;DHT22;45837;51.076;3.578;2023-02-15T06:56:02;18.40;52.10
59977;DHT22;45837;51.076;3.578;2023-02-15T06:58:28;18.40;51.60
59977;DHT22;45837;51.076;3.578;2023-02-15T07:00:54;18.40;51.40
59977;DHT22;45837;51.076;3.578;2023-02-15T07:03:20;18.40;51.00
59977;DHT22;45837;51.076;3.578;2023-02-15T07:05:46;18.30;51.10
59977;DHT22;45837;51.076;3.578;2023-02-15T07:08:14;18.30;50.40
59977;DHT22;45837;51.076;3.578;2023-02-15T07:10:43;18.30;50.30
59977;DHT22;45837;51.076;3.578;2023-02-15T07:13:09;18.20;50.20
59977;DHT22;45837;51.076;3.578;2023-02-15T07:15:34;18.20;50.10
59977;DHT22;45837;51.076;3.578;2023-02-15T07:18:00;18.20;49.90
59977;DHT22;45837;51.076;3.578;2023-02-15T07:20:26;18.20;49.80
59977;DHT22;45837;51.076;3.578;2023-02-15T07:22:52;18.20;49.40
59977;DHT22;45837;51.076;3.578;2023-02-15T07:25:18;18.10;49.40
59977;DHT22;45837;51.076;3.578;2023-02-15T07:27:44;18.10;49.00
59977;DHT22;45837;51.076;3.578;2023-02-15T07:30:11;18.10;48.90
59977;DHT22;45837;51.076;3.578;2023-02-15T07:32:37;18.10;48.60
59977;DHT22;45837;51.076;3.578;2023-02-15T07:35:23;18.10;48.50
59977;DHT22;45837;51.076;3.578;2023-02-15T07:37:49;18.00;48.20
59977;DHT22;45837;51.076;3.578;2023-02-15T07:40:15;18.00;48.30
59977;DHT22;45837;51.076;3.578;2023-02-15T07:42:41;18.00;48.20
59977;DHT22;45837;51.076;3.578;2023-02-15T07:45:07;18.00;48.20
59977;DHT22;45837;51.076;3.578;2023-02-15T07:47:33;18.00;47.80
59977;DHT22;45837;51.076;3.578;2023-02-15T07:49:59;17.90;47.70
59977;DHT22;45837;51.076;3.578;2023-02-15T07:52:25;17.90;47.70
59977;DHT22;45837;51.076;3.578;2023-02-15T07:54:51;17.90;47.50
59977;DHT22;45837;51.076;3.578;2023-02-15T07:57:17;17.90;47.50
59977;DHT22;45837;51.076;3.578;2023-02-15T07:59:43;17.90;47.40
59977;DHT22;45837;51.076;3.578;2023-02-15T08:02:12;17.90;47.70
59977;DHT22;45837;51.076;3.578;2023-02-15T08:04:38;17.90;47.60
59977;DHT22;45837;51.076;3.578;2023-02-15T08:07:04;17.90;47.80
59977;DHT22;45837;51.076;3.578;2023-02-15T08:09:30;17.90;47.80
59977;DHT22;45837;51.076;3.578;2023-02-15T08:11:56;17.90;48.00
59977;DHT22;45837;51.076;3.578;2023-02-15T08:14:22;17.90;48.10
59977;DHT22;45837;51.076;3.578;2023-02-15T08:16:51;17.90;48.20
59977;DHT22;45837;51.076;3.578;2023-02-15T08:19:19;18.00;48.30
59977;DHT22;45837;51.076;3.578;2023-02-15T08:21:49;18.10;48.30
59977;DHT22;45837;51.076;3.578;2023-02-15T08:24:16;18.20;48.20
59977;DHT22;45837;51.076;3.578;2023-02-15T08:26:42;18.20;48.10
59977;DHT22;45837;51.076;3.578;2023-02-15T08:29:10;18.30;48.30
59977;DHT22;45837;51.076;3.578;2023-02-15T08:31:36;18.30;48.40
59977;DHT22;45837;51.076;3.578;2023-02-15T08:34:03;18.30;48.50
59977;DHT22;45837;51.076;3.578;2023-02-15T08:36:29;18.40;48.70
59977;DHT22;45837;51.076;3.578;2023-02-15T08:38:57;18.40;48.70
59977;DHT22;45837;51.076;3.578;2023-02-15T08:41:27;18.50;49.00
59977;DHT22;45837;51.076;3.578;2023-02-15T08:43:53;18.60;48.80
59977;DHT22;45837;51.076;3.578;2023-02-15T08:46:20;18.60;48.80
59977;DHT22;45837;51.076;3.578;2023-02-15T08:48:46;18.70;48.70
59977;DHT22;45837;51.076;3.578;2023-02-15T08:51:13;18.80;48.70
59977;DHT22;45837;51.076;3.578;2023-02-15T08:53:40;19.00;48.60
59977;DHT22;45837;51.076;3.578;2023-02-15T08:56:06;19.10;48.60
59977;DHT22;45837;51.076;3.578;2023-02-15T08:58:32;19.10;48.50
59977;DHT22;45837;51.076;3.578;2023-02-15T09:00:58;19.30;48.40
59977;DHT22;45837;51.076;3.578;2023-02-15T09:03:24;19.40;48.30
59977;DHT22;45837;51.076;3.578;2023-02-15T09:05:57;19.50;48.30
59977;DHT22;45837;51.076;3.578;2023-02-15T09:08:23;19.60;48.20
59977;DHT22;45837;51.076;3.578;2023-02-15T09:10:49;19.70;48.20
59977;DHT22;45837;51.076;3.578;2023-02-15T09:13:15;19.80;48.10
59977;DHT22;45837;51.076;3.578;2023-02-15T09:15:41;19.90;48.00
59977;DHT22;45837;51.076;3.578;2023-02-15T09:18:07;20.00;47.90
59977;DHT22;45837;51.076;3.578;2023-02-15T09:20:35;20.10;48.00
59977;DHT22;45837;51.076;3.578;2023-02-15T09:23:01;20.10;48.00
59977;DHT22;45837;51.076;3.578;2023-02-15T09:25:27;20.20;47.90
59977;DHT22;45837;51.076;3.578;2023-02-15T09:27:53;20.30;48.10
59977;DHT22;45837;51.076;3.578;2023-02-15T09:30:19;20.30;48.30
59977;DHT22;45837;51.076;3.578;2023-02-15T09:32:45;20.30;48.30
59977;DHT22;45837;51.076;3.578;2023-02-15T09:35:14;20.40;48.50
59977;DHT22;45837;51.076;3.578;2023-02-15T09:37:39;20.50;48.40
59977;DHT22;45837;51.076;3.578;2023-02-15T09:40:06;20.60;48.30
59977;DHT22;45837;51.076;3.578;2023-02-15T09:43:32;20.70;48.40
59977;DHT22;45837;51.076;3.578;2023-02-15T09:45:37;20.70;48.40
59977;DHT22;45837;51.076;3.578;2023-02-15T09:50:55;20.80;48.40
59977;DHT22;45837;51.076;3.578;2023-02-15T09:53:28;20.80;48.50
59977;DHT22;45837;51.076;3.578;2023-02-15T09:56:01;20.80;48.60
59977;DHT22;45837;51.076;3.578;2023-02-15T09:59:04;20.80;48.60
59977;DHT22;45837;51.076;3.578;2023-02-15T10:12:19;20.80;48.90
59977;DHT22;45837;51.076;3.578;2023-02-15T10:15:00;20.80;49.00
59977;DHT22;45837;51.076;3.578;2023-02-15T10:27:41;20.90;48.60
59977;DHT22;45837;51.076;3.578;2023-02-15T10:30:10;20.90;48.70
59977;DHT22;45837;51.076;3.578;2023-02-15T10:32:46;20.90;48.80
59977;DHT22;45837;51.076;3.578;2023-02-15T10:35:18;20.90;48.90
59977;DHT22;45837;51.076;3.578;2023-02-15T10:40:38;20.90;49.00
59977;DHT22;45837;51.076;3.578;2023-02-15T10:53:14;21.00;49.00
59977;DHT22;45837;51.076;3.578;2023-02-15T10:58:24;21.00;48.90
59977;DHT22;45837;51.076;3.578;2023-02-15T11:08:20;21.10;48.70
59977;DHT22;45837;51.076;3.578;2023-02-15T11:10:48;21.10;48.70
59977;DHT22;45837;51.076;3.578;2023-02-15T11:13:17;21.00;48.80
59977;DHT22;45837;51.076;3.578;2023-02-15T11:15:57;21.00;48.80
59977;DHT22;45837;51.076;3.578;2023-02-15T11:18:32;21.00;49.00
59977;DHT22;45837;51.076;3.578;2023-02-15T11:21:07;20.90;49.10
59977;DHT22;45837;51.076;3.578;2023-02-15T11:23:35;20.80;49.20
59977;DHT22;45837;51.076;3.578;2023-02-15T11:26:06;20.80;49.20
59977;DHT22;45837;51.076;3.578;2023-02-15T11:28:40;20.80;49.30
59977;DHT22;45837;51.076;3.578;2023-02-15T11:31:16;20.70;49.50
59977;DHT22;45837;51.076;3.578;2023-02-15T11:33:43;20.70;49.60
59977;DHT22;45837;51.076;3.578;2023-02-15T11:36:13;20.70;49.60
59977;DHT22;45837;51.076;3.578;2023-02-15T11:38:39;20.70;49.80
59977;DHT22;45837;51.076;3.578;2023-02-15T11:43:36;20.70;50.10
59977;DHT22;45837;51.076;3.578;2023-02-15T11:46:03;20.70;50.10
59977;DHT22;45837;51.076;3.578;2023-02-15T11:48:29;20.70;50.30
59977;DHT22;45837;51.076;3.578;2023-02-15T11:50:56;20.80;50.30
59977;DHT22;45837;51.076;3.578;2023-02-15T11:53:22;20.90;50.40
59977;DHT22;45837;51.076;3.578;2023-02-15T11:55:52;20.80;50.30
59977;DHT22;45837;51.076;3.578;2023-02-15T12:00:56;20.90;50.40
59977;DHT22;45837;51.076;3.578;2023-02-15T12:03:34;21.00;50.50
59977;DHT22;45837;51.076;3.578;2023-02-15T12:06:05;21.00;50.50
59977;DHT22;45837;51.076;3.578;2023-02-15T12:08:37;21.00;50.40
59977;DHT22;45837;51.076;3.578;2023-02-15T12:11:08;21.00;50.40
59977;DHT22;45837;51.076;3.578;2023-02-15T12:16:21;21.00;50.10
59977;DHT22;45837;51.076;3.578;2023-02-15T12:18:47;21.10;50.00
59977;DHT22;45837;51.076;3.578;2023-02-15T12:21:23;21.10;49.80
59977;DHT22;45837;51.076;3.578;2023-02-15T12:23:51;21.10;49.70
59977;DHT22;45837;51.076;3.578;2023-02-15T12:26:30;21.10;49.70
59977;DHT22;45837;51.076;3.578;2023-02-15T12:28:58;21.00;49.50
59977;DHT22;45837;51.076;3.578;2023-02-15T12:33:53;20.90;49.50
59977;DHT22;45837;51.076;3.578;2023-02-15T12:39:02;20.90;49.60
59977;DHT22;45837;51.076;3.578;2023-02-15T12:41:28;20.80;49.40
59977;DHT22;45837;51.076;3.578;2023-02-15T12:46:28;20.80;49.30
59977;DHT22;45837;51.076;3.578;2023-02-15T12:51:52;20.70;49.20
59977;DHT22;45837;51.076;3.578;2023-02-15T12:59:48;20.60;49.00
59977;DHT22;45837;51.076;3.578;2023-02-15T13:02:18;20.50;49.10
59977;DHT22;45837;51.076;3.578;2023-02-15T13:04:48;20.50;49.20
59977;DHT22;45837;51.076;3.578;2023-02-15T13:07:14;20.50;49.20
59977;DHT22;45837;51.076;3.578;2023-02-15T13:09:40;20.50;48.90
59977;DHT22;45837;51.076;3.578;2023-02-15T13:12:14;20.40;47.90
59977;DHT22;45837;51.076;3.578;2023-02-15T13:14:43;20.40;48.10
59977;DHT22;45837;51.076;3.578;2023-02-15T13:17:10;20.30;48.20
59977;DHT22;45837;51.076;3.578;2023-02-15T13:19:41;20.30;48.20
59977;DHT22;45837;51.076;3.578;2023-02-15T13:22:14;20.30;48.30
59977;DHT22;45837;51.076;3.578;2023-02-15T13:24:43;20.30;48.20
59977;DHT22;45837;51.076;3.578;2023-02-15T13:27:14;20.30;48.20
59977;DHT22;45837;51.076;3.578;2023-02-15T13:29:42;20.20;48.20
59977;DHT22;45837;51.076;3.578;2023-02-15T13:32:14;20.20;48.20
59977;DHT22;45837;51.076;3.578;2023-02-15T13:34:44;20.20;48.10
59977;DHT22;45837;51.076;3.578;2023-02-15T13:37:20;20.20;48.10
59977;DHT22;45837;51.076;3.578;2023-02-15T13:39:48;20.20;48.10
59977;DHT22;45837;51.076;3.578;2023-02-15T13:47:30;20.10;47.90
59977;DHT22;45837;51.076;3.578;2023-02-15T13:52:27;20.00;47.70
59977;DHT22;45837;51.076;3.578;2023-02-15T13:54:58;20.00;47.50
59977;DHT22;45837;51.076;3.578;2023-02-15T14:05:45;20.00;46.50
59977;DHT22;45837;51.076;3.578;2023-02-15T14:08:11;19.90;46.80
59977;DHT22;45837;51.076;3.578;2023-02-15T14:18:15;19.80;46.90
59977;DHT22;45837;51.076;3.578;2023-02-15T14:21:00;19.80;47.50
59977;DHT22;45837;51.076;3.578;2023-02-15T14:23:33;19.80;46.70
59977;DHT22;45837;51.076;3.578;2023-02-15T14:26:14;19.80;46.70
59977;DHT22;45837;51.076;3.578;2023-02-15T14:31:20;19.70;46.70
59977;DHT22;45837;51.076;3.578;2023-02-15T14:33:49;19.70;46.70
59977;DHT22;45837;51.076;3.578;2023-02-15T14:36:16;19.70;46.80
59977;DHT22;45837;51.076;3.578;2023-02-15T14:38:59;19.70;46.80
59977;DHT22;45837;51.076;3.578;2023-02-15T14:44:32;19.70;46.90
59977;DHT22;45837;51.076;3.578;2023-02-15T14:47:03;19.70;46.90
59977;DHT22;45837;51.076;3.578;2023-02-15T14:49:31;19.70;46.90
59977;DHT22;45837;51.076;3.578;2023-02-15T14:52:07;19.60;47.00
59977;DHT22;45837;51.076;3.578;2023-02-15T14:59:38;19.60;47.10
59977;DHT22;45837;51.076;3.578;2023-02-15T15:04:35;19.60;47.10
59977;DHT22;45837;51.076;3.578;2023-02-15T15:09:29;19.60;47.10
59977;DHT22;45837;51.076;3.578;2023-02-15T15:12:12;19.50;46.90
59977;DHT22;45837;51.076;3.578;2023-02-15T15:14:39;19.60;47.10
59977;DHT22;45837;51.076;3.578;2023-02-15T15:17:06;19.60;47.20
59977;DHT22;45837;51.076;3.578;2023-02-15T15:22:17;19.60;48.10
59977;DHT22;45837;51.076;3.578;2023-02-15T15:29:53;19.60;48.30
59977;DHT22;45837;51.076;3.578;2023-02-15T15:32:19;19.70;48.40
59977;DHT22;45837;51.076;3.578;2023-02-15T15:37:33;19.80;48.70
59977;DHT22;45837;51.076;3.578;2023-02-15T15:42:41;19.90;49.10
59977;DHT22;45837;51.076;3.578;2023-02-15T15:47:54;20.00;49.90
59977;DHT22;45837;51.076;3.578;2023-02-15T15:50:23;20.10;50.40
59977;DHT22;45837;51.076;3.578;2023-02-15T15:52:52;20.20;50.90
59977;DHT22;45837;51.076;3.578;2023-02-15T15:55:19;20.30;50.90
59977;DHT22;45837;51.076;3.578;2023-02-15T15:57:46;20.50;50.90
59977;DHT22;45837;51.076;3.578;2023-02-15T16:00:35;20.50;50.90
59977;DHT22;45837;51.076;3.578;2023-02-15T16:03:01;20.70;50.70
59977;DHT22;45837;51.076;3.578;2023-02-15T16:05:33;20.80;50.80
59977;DHT22;45837;51.076;3.578;2023-02-15T16:07:59;20.80;51.30
59977;DHT22;45837;51.076;3.578;2023-02-15T16:10:26;20.90;50.80
59977;DHT22;45837;51.076;3.578;2023-02-15T16:12:52;21.00;51.10
59977;DHT22;45837;51.076;3.578;2023-02-15T16:17:45;21.00;51.20
59977;DHT22;45837;51.076;3.578;2023-02-15T16:22:48;21.10;51.20
59977;DHT22;45837;51.076;3.578;2023-02-15T16:25:24;21.10;51.50
59977;DHT22;45837;51.076;3.578;2023-02-15T16:27:54;21.00;51.30
59977;DHT22;45837;51.076;3.578;2023-02-15T16:32:46;21.00;53.40
59977;DHT22;45837;51.076;3.578;2023-02-15T16:35:16;21.00;53.90
59977;DHT22;45837;51.076;3.578;2023-02-15T16:37:42;21.00;54.40
59977;DHT22;45837;51.076;3.578;2023-02-15T16:42:50;20.90;54.80
59977;DHT22;45837;51.076;3.578;2023-02-15T16:45:16;21.00;55.40
59977;DHT22;45837;51.076;3.578;2023-02-15T16:47:44;21.00;55.60
59977;DHT22;45837;51.076;3.578;2023-02-15T16:50:18;21.00;55.60
59977;DHT22;45837;51.076;3.578;2023-02-15T16:52:45;21.00;55.30
59977;DHT22;45837;51.076;3.578;2023-02-15T16:55:19;21.00;54.80
59977;DHT22;45837;51.076;3.578;2023-02-15T16:57:45;21.00;55.80
59977;DHT22;45837;51.076;3.578;2023-02-15T17:00:18;21.00;56.50
59977;DHT22;45837;51.076;3.578;2023-02-15T17:03:45;20.90;55.60
59977;DHT22;45837;51.076;3.578;2023-02-15T17:05:40;21.00;55.60
59977;DHT22;45837;51.076;3.578;2023-02-15T17:08:14;21.00;55.60
59977;DHT22;45837;51.076;3.578;2023-02-15T17:10:42;21.00;55.40
59977;DHT22;45837;51.076;3.578;2023-02-15T17:13:11;21.10;55.60
59977;DHT22;45837;51.076;3.578;2023-02-15T17:15:38;21.00;54.70
59977;DHT22;45837;51.076;3.578;2023-02-15T17:18:05;21.00;55.40
59977;DHT22;45837;51.076;3.578;2023-02-15T17:20:34;21.10;54.70
59977;DHT22;45837;51.076;3.578;2023-02-15T17:23:02;21.10;54.70
59977;DHT22;45837;51.076;3.578;2023-02-15T17:25:32;21.00;55.80
59977;DHT22;45837;51.076;3.578;2023-02-15T17:28:00;21.00;55.50
59977;DHT22;45837;51.076;3.578;2023-02-15T17:30:32;21.00;55.00
59977;DHT22;45837;51.076;3.578;2023-02-15T17:33:02;21.10;55.20
59977;DHT22;45837;51.076;3.578;2023-02-15T17:35:28;21.10;54.10
59977;DHT22;45837;51.076;3.578;2023-02-15T17:38:02;21.10;54.40
59977;DHT22;45837;51.076;3.578;2023-02-15T17:40:32;21.10;54.00
59977;DHT22;45837;51.076;3.578;2023-02-15T17:42:59;21.10;53.40
59977;DHT22;45837;51.076;3.578;2023-02-15T17:45:30;21.00;53.20
59977;DHT22;45837;51.076;3.578;2023-02-15T17:47:57;21.00;54.10
59977;DHT22;45837;51.076;3.578;2023-02-15T17:50:25;21.10;54.50
59977;DHT22;45837;51.076;3.578;2023-02-15T17:52:51;21.00;54.30
59977;DHT22;45837;51.076;3.578;2023-02-15T17:55:19;21.00;55.40
59977;DHT22;45837;51.076;3.578;2023-02-15T17:58:00;21.00;55.80
59977;DHT22;45837;51.076;3.578;2023-02-15T18:00:26;21.10;56.20
59977;DHT22;45837;51.076;3.578;2023-02-15T18:03:10;21.10;55.70
59977;DHT22;45837;51.076;3.578;2023-02-15T18:05:55;21.20;55.80
59977;DHT22;45837;51.076;3.578;2023-02-15T18:08:39;21.20;56.20
59977;DHT22;45837;51.076;3.578;2023-02-15T18:11:23;21.10;56.80
59977;DHT22;45837;51.076;3.578;2023-02-15T18:14:08;21.10;56.10
59977;DHT22;45837;51.076;3.578;2023-02-15T18:16:35;21.10;56.00
59977;DHT22;45837;51.076;3.578;2023-02-15T18:19:02;21.10;56.60
59977;DHT22;45837;51.076;3.578;2023-02-15T18:21:29;21.10;55.80